createdAt,value
2018-04-15T00:00:17.766Z,99.90
2018-04-15T00:02:45.265Z,99.90
2018-04-15T00:05:12.729Z,99.90
2018-04-15T00:07:41.002Z,99.90
2018-04-15T00:10:09.233Z,99.90
2018-04-15T00:12:36.747Z,99.90
2018-04-15T00:15:04.988Z,99.90
2018-04-15T00:17:32.483Z,99.90
2018-04-15T00:20:01.751Z,99.90
2018-04-15T00:22:29.248Z,99.90
2018-04-15T00:24:56.719Z,99.90
2018-04-15T00:27:24.221Z,99.90
2018-04-15T00:29:51.696Z,99.90
2018-04-15T00:32:19.195Z,99.90
2018-04-15T00:34:46.661Z,99.90
2018-04-15T00:37:14.165Z,99.90
2018-04-15T00:39:41.660Z,99.90
2018-04-15T00:42:09.165Z,99.90
2018-04-15T00:44:36.647Z,99.90
2018-04-15T00:47:04.142Z,99.90
2018-04-15T00:49:31.632Z,99.90
2018-04-15T00:51:59.193Z,99.90
2018-04-15T00:54:26.675Z,99.90
2018-04-15T00:56:54.181Z,99.90
2018-04-15T00:59:21.663Z,99.90
2018-04-15T01:01:49.163Z,99.90
2018-04-15T01:04:17.415Z,99.90
2018-04-15T01:06:44.917Z,99.90
2018-04-15T01:09:12.408Z,99.90
2018-04-15T01:11:39.903Z,99.90
2018-04-15T01:14:07.378Z,99.90
2018-04-15T01:16:35.660Z,99.90
2018-04-15T01:19:03.889Z,99.90
2018-04-15T01:21:31.386Z,99.90
2018-04-15T01:23:58.849Z,99.90
2018-04-15T01:26:26.377Z,99.90
2018-04-15T01:28:53.863Z,99.90
2018-04-15T01:31:22.121Z,99.90
2018-04-15T01:33:50.365Z,99.90
2018-04-15T01:36:17.884Z,99.90
2018-04-15T01:38:45.353Z,99.90
2018-04-15T01:41:13.075Z,99.90
2018-04-15T01:43:40.556Z,99.90
2018-04-15T01:46:08.019Z,99.90
2018-04-15T01:48:35.529Z,99.90
2018-04-15T01:51:02.998Z,99.90
2018-04-15T01:53:30.484Z,99.90
2018-04-15T01:55:57.967Z,99.90
2018-04-15T01:58:25.464Z,99.90
2018-04-15T02:00:52.942Z,99.90
2018-04-15T02:03:21.196Z,99.90
2018-04-15T02:05:48.686Z,99.90
2018-04-15T02:08:17.048Z,99.90
2018-04-15T02:10:44.960Z,99.90
2018-04-15T02:13:12.473Z,99.90
2018-04-15T02:15:39.950Z,99.90
2018-04-15T02:18:08.201Z,99.90
2018-04-15T02:20:35.739Z,99.90
2018-04-15T02:23:03.243Z,99.90
2018-04-15T02:25:31.496Z,99.90
2018-04-15T02:27:58.989Z,99.90
2018-04-15T02:30:26.458Z,99.90
2018-04-15T02:32:53.941Z,99.90
2018-04-15T02:35:21.441Z,99.90
2018-04-15T02:37:49.703Z,99.90
2018-04-15T02:40:17.194Z,99.90
2018-04-15T02:42:44.680Z,99.90
2018-04-15T02:45:12.178Z,99.90
2018-04-15T02:47:39.675Z,99.90
2018-04-15T02:50:07.192Z,99.90
2018-04-15T02:52:34.668Z,99.90
2018-04-15T02:55:02.939Z,99.90
2018-04-15T02:57:31.172Z,99.90
2018-04-15T02:59:58.658Z,99.90
2018-04-15T03:02:26.135Z,99.90
2018-04-15T03:04:54.410Z,99.90
2018-04-15T03:07:22.658Z,99.90
2018-04-15T03:09:50.162Z,99.90
2018-04-15T03:12:17.682Z,99.90
2018-04-15T03:14:46.136Z,99.90
2018-04-15T03:17:13.599Z,99.90
2018-04-15T03:19:41.093Z,99.90
2018-04-15T03:22:08.595Z,99.90
2018-04-15T03:24:36.063Z,99.90
2018-04-15T03:27:03.637Z,99.90
2018-04-15T03:29:31.081Z,99.90
2018-04-15T03:31:58.600Z,99.90
2018-04-15T03:34:26.340Z,99.90
2018-04-15T03:36:54.625Z,99.90
2018-04-15T03:39:22.875Z,99.90
2018-04-15T03:41:50.369Z,99.90
2018-04-15T03:44:17.863Z,99.90
2018-04-15T03:46:45.367Z,99.90
2018-04-15T03:49:13.608Z,99.90
2018-04-15T03:51:41.119Z,99.90
2018-04-15T03:54:09.364Z,99.90
2018-04-15T03:56:36.880Z,99.90
2018-04-15T03:59:04.354Z,99.90
2018-04-15T04:01:31.872Z,99.90
2018-04-15T04:04:00.113Z,99.90
2018-04-15T04:06:27.631Z,99.90
2018-04-15T04:08:55.111Z,99.90
2018-04-15T04:11:22.636Z,99.90
2018-04-15T04:13:50.887Z,99.90
2018-04-15T04:16:19.149Z,99.90
2018-04-15T04:18:59.127Z,99.90
2018-04-15T04:21:38.542Z,99.90
2018-04-15T04:24:18.759Z,99.90
2018-04-15T04:26:46.265Z,99.90
2018-04-15T04:29:14.512Z,99.90
2018-04-15T04:31:42.031Z,99.90
2018-04-15T04:34:09.517Z,99.90
2018-04-15T04:36:37.020Z,99.90
2018-04-15T04:39:06.102Z,99.90
2018-04-15T04:41:34.372Z,99.90
2018-04-15T04:44:02.630Z,99.90
2018-04-15T04:46:30.124Z,99.90
2018-04-15T04:48:58.380Z,99.90
2018-04-15T04:51:25.890Z,99.90
2018-04-15T04:53:53.378Z,99.90
2018-04-15T04:56:20.895Z,99.90
2018-04-15T04:58:48.378Z,99.90
2018-04-15T05:01:15.884Z,99.90
2018-04-15T05:03:44.136Z,99.90
2018-04-15T05:06:11.663Z,99.90
2018-04-15T05:08:39.139Z,99.90
2018-04-15T05:11:06.642Z,99.90
2018-04-15T05:13:34.887Z,99.90
2018-04-15T05:16:02.422Z,99.90
2018-04-15T05:18:29.914Z,99.90
2018-04-15T05:20:57.424Z,99.90
2018-04-15T05:23:24.899Z,99.90
2018-04-15T05:25:52.415Z,99.90
2018-04-15T05:28:19.917Z,99.90
2018-04-15T05:30:47.446Z,99.90
2018-04-15T05:33:14.931Z,99.90
2018-04-15T05:35:42.445Z,99.90
2018-04-15T05:38:09.924Z,99.90
2018-04-15T05:40:37.430Z,99.90
2018-04-15T05:43:04.906Z,99.90
2018-04-15T05:45:33.335Z,99.90
2018-04-15T05:48:00.817Z,99.90
2018-04-15T05:50:28.319Z,99.90
2018-04-15T05:52:55.810Z,99.90
2018-04-15T05:55:23.289Z,99.90
2018-04-15T05:57:50.791Z,99.90
2018-04-15T06:00:18.285Z,99.90
2018-04-15T06:02:45.811Z,99.90
2018-04-15T06:05:13.334Z,99.90
2018-04-15T06:07:40.802Z,99.90
2018-04-15T06:10:09.128Z,99.90
2018-04-15T06:12:36.664Z,99.90
2018-04-15T06:15:04.168Z,99.90
2018-04-15T06:17:31.690Z,99.90
2018-04-15T06:19:59.193Z,99.90
2018-04-15T06:22:26.694Z,99.90
2018-04-15T06:24:54.183Z,99.90
2018-04-15T06:27:21.680Z,99.90
2018-04-15T06:29:49.171Z,99.90
2018-04-15T06:32:16.696Z,99.90
2018-04-15T06:34:44.974Z,99.90
2018-04-15T06:37:12.469Z,99.90
2018-04-15T06:39:39.978Z,99.90
2018-04-15T06:42:07.472Z,99.90
2018-04-15T06:44:34.944Z,99.90
2018-04-15T06:47:02.466Z,99.90
2018-04-15T06:49:30.721Z,99.90
2018-04-15T06:51:58.327Z,99.90
2018-04-15T06:54:25.840Z,99.90
2018-04-15T06:56:53.334Z,99.90
2018-04-15T06:59:21.585Z,99.90
2018-04-15T07:01:49.083Z,99.90
2018-04-15T07:04:16.554Z,99.90
2018-04-15T07:06:44.057Z,99.90
2018-04-15T07:09:11.558Z,99.90
2018-04-15T07:11:39.051Z,99.90
2018-04-15T07:14:06.531Z,99.90
2018-04-15T07:16:34.038Z,99.90
2018-04-15T07:19:01.534Z,99.90
2018-04-15T07:21:29.048Z,99.90
2018-04-15T07:23:56.535Z,99.90
2018-04-15T07:26:24.038Z,99.90
2018-04-15T07:28:52.270Z,99.90
2018-04-15T07:31:19.783Z,99.90
2018-04-15T07:33:50.977Z,99.90
2018-04-15T07:36:20.446Z,99.90
2018-04-15T07:38:48.038Z,99.90
2018-04-15T07:41:15.548Z,99.90
2018-04-15T07:43:43.798Z,99.90
2018-04-15T07:46:11.363Z,99.90
2018-04-15T07:48:38.838Z,99.90
2018-04-15T07:51:07.100Z,99.90
2018-04-15T07:53:34.610Z,99.90
2018-04-15T07:56:02.852Z,99.90
2018-04-15T07:58:31.110Z,99.90
2018-04-15T08:00:59.387Z,99.90
2018-04-15T08:03:27.633Z,99.90
2018-04-15T08:05:55.270Z,99.90
2018-04-15T08:08:22.758Z,99.90
2018-04-15T08:10:50.244Z,99.90
2018-04-15T08:13:18.535Z,99.90
2018-04-15T08:15:46.794Z,99.90
2018-04-15T08:18:15.084Z,99.90
2018-04-15T08:20:43.334Z,99.90
2018-04-15T08:23:10.852Z,99.90
2018-04-15T08:25:38.328Z,99.90
2018-04-15T08:28:05.840Z,99.30
2018-04-15T08:30:33.316Z,98.90
2018-04-15T08:33:00.847Z,99.70
2018-04-15T08:35:28.332Z,99.30
2018-04-15T08:37:55.845Z,98.60
2018-04-15T08:40:23.319Z,96.20
2018-04-15T08:42:51.587Z,90.30
2018-04-15T08:45:19.844Z,90.30
2018-04-15T08:47:47.356Z,90.20
2018-04-15T08:50:14.847Z,87.10
2018-04-15T08:52:42.361Z,82.10
2018-04-15T08:55:09.848Z,83.60
2018-04-15T08:57:37.364Z,84.30
2018-04-15T09:00:04.834Z,76.10
2018-04-15T09:02:32.342Z,70.90
2018-04-15T09:04:59.830Z,62.60
2018-04-15T09:07:28.090Z,58.70
2018-04-15T09:09:55.579Z,58.70
2018-04-15T09:12:23.074Z,56.30
2018-04-15T09:14:50.553Z,52.60
2018-04-15T09:17:18.083Z,52.80
2018-04-15T09:19:45.564Z,53.90
2018-04-15T09:22:13.067Z,55.60
2018-04-15T09:24:40.554Z,60.70
2018-04-15T09:27:08.062Z,63.90
2018-04-15T09:29:36.346Z,69.50
2018-04-15T09:32:03.840Z,69.50
2018-04-15T09:34:31.319Z,70.80
2018-04-15T09:36:58.826Z,71.00
2018-04-15T09:39:27.053Z,67.80
2018-04-15T09:41:54.577Z,67.80
2018-04-15T09:44:22.068Z,63.50
2018-04-15T09:46:49.574Z,54.30
2018-04-15T09:49:17.807Z,50.00
2018-04-15T09:51:45.324Z,49.90
2018-04-15T09:54:12.820Z,45.40
2018-04-15T09:56:40.336Z,42.00
2018-04-15T09:59:07.863Z,41.70
2018-04-15T10:01:35.322Z,42.90
2018-04-15T10:04:02.795Z,44.50
2018-04-15T10:06:31.064Z,46.50
2018-04-15T10:08:59.337Z,45.80
2018-04-15T10:11:27.629Z,45.70
2018-04-15T10:13:55.884Z,45.40
2018-04-15T10:16:23.397Z,45.40
2018-04-15T10:18:50.892Z,44.80
2018-04-15T10:21:19.172Z,45.20
2018-04-15T10:23:46.624Z,45.20
2018-04-15T10:26:14.106Z,45.90
2018-04-15T10:28:42.368Z,47.60
2018-04-15T10:31:10.621Z,48.20
2018-04-15T10:33:38.123Z,48.20
2018-04-15T10:36:05.602Z,48.30
2018-04-15T10:38:33.125Z,47.80
2018-04-15T10:41:01.371Z,44.60
2018-04-15T10:43:28.901Z,44.60
2018-04-15T10:45:56.376Z,43.30
2018-04-15T10:48:24.141Z,41.10
2018-04-15T10:50:51.609Z,37.70
2018-04-15T10:53:19.117Z,33.90
2018-04-15T10:55:46.593Z,33.00
2018-04-15T10:58:18.025Z,32.10
2018-04-15T11:00:45.502Z,30.20
2018-04-15T11:03:13.001Z,30.90
2018-04-15T11:05:40.639Z,30.50
2018-04-15T11:08:08.159Z,29.20
2018-04-15T11:10:35.667Z,29.80
2018-04-15T11:13:03.979Z,28.70
2018-04-15T11:15:32.210Z,28.00
2018-04-15T11:17:59.713Z,28.00
2018-04-15T11:20:28.486Z,28.40
2018-04-15T11:22:56.037Z,28.30
2018-04-15T11:25:23.507Z,29.30
2018-04-15T11:27:51.795Z,28.60
2018-04-15T11:30:20.054Z,27.80
2018-04-15T11:32:47.789Z,27.80
2018-04-15T11:35:15.263Z,28.10
2018-04-15T11:37:42.830Z,28.00
2018-04-15T11:40:10.346Z,26.90
2018-04-15T11:42:37.899Z,26.70
2018-04-15T11:45:05.424Z,27.10
2018-04-15T11:47:33.677Z,26.40
2018-04-15T11:50:01.173Z,26.40
2018-04-15T11:52:28.661Z,26.40
2018-04-15T11:54:56.169Z,25.30
2018-04-15T11:57:24.437Z,24.60
2018-04-15T11:59:51.915Z,24.50
2018-04-15T12:02:20.219Z,25.50
2018-04-15T12:04:47.711Z,25.50
2018-04-15T12:07:15.237Z,25.60
2018-04-15T12:09:42.795Z,25.00
2018-04-15T12:12:10.320Z,24.00
2018-04-15T12:14:38.572Z,23.10
2018-04-15T12:17:06.095Z,23.10
2018-04-15T12:19:33.579Z,23.60
2018-04-15T12:22:01.093Z,23.20
2018-04-15T12:24:28.570Z,21.70
2018-04-15T12:26:56.085Z,22.10
2018-04-15T12:29:24.348Z,22.80
2018-04-15T12:31:51.838Z,22.80
2018-04-15T12:34:19.330Z,24.40
2018-04-15T12:36:46.824Z,25.50
2018-04-15T12:39:14.293Z,26.70
2018-04-15T12:41:42.585Z,28.60
2018-04-15T12:44:10.065Z,28.60
2018-04-15T12:46:37.563Z,27.80
2018-04-15T12:49:05.073Z,27.90
2018-04-15T12:51:32.584Z,27.30
2018-04-15T12:54:00.850Z,28.40
2018-04-15T12:56:28.368Z,28.40
2018-04-15T12:58:55.851Z,28.80
2018-04-15T13:01:23.358Z,29.50
2018-04-15T13:03:51.589Z,30.80
2018-04-15T13:06:19.118Z,30.80
2018-04-15T13:08:46.594Z,28.90
2018-04-15T13:11:14.098Z,28.20
2018-04-15T13:13:42.346Z,28.30
2018-04-15T13:16:09.850Z,27.80
2018-04-15T13:18:37.397Z,28.50
2018-04-15T13:21:05.673Z,27.20
2018-04-15T13:23:33.916Z,26.30
2018-04-15T13:26:01.411Z,26.20
2018-04-15T13:28:29.680Z,23.50
2018-04-15T13:30:57.995Z,23.90
2018-04-15T13:33:25.484Z,23.90
2018-04-15T13:35:52.982Z,24.70
2018-04-15T13:38:21.227Z,26.80
2018-04-15T13:40:48.718Z,26.70
2018-04-15T13:43:16.211Z,28.20
2018-04-15T13:45:43.675Z,30.50
2018-04-15T13:48:11.165Z,31.10
2018-04-15T13:50:38.702Z,31.40
2018-04-15T13:53:06.205Z,31.20
2018-04-15T13:55:34.478Z,30.80
2018-04-15T13:58:02.736Z,31.30
2018-04-15T14:00:30.223Z,31.30
2018-04-15T14:02:57.723Z,31.50
2018-04-15T14:05:25.204Z,32.00
2018-04-15T14:07:52.721Z,32.80
2018-04-15T14:10:20.193Z,33.70
2018-04-15T14:12:47.744Z,33.90
2018-04-15T14:15:15.244Z,34.20
2018-04-15T14:17:42.741Z,35.40
2018-04-15T14:20:10.232Z,37.30
2018-04-15T14:22:37.749Z,37.50
2018-04-15T14:25:05.208Z,36.80
2018-04-15T14:27:32.710Z,35.60
2018-04-15T14:30:00.196Z,36.50
2018-04-15T14:32:28.497Z,35.70
2018-04-15T14:34:55.983Z,34.90
2018-04-15T14:37:23.534Z,33.60
2018-04-15T14:39:53.020Z,34.20
2018-04-15T14:42:20.553Z,34.60
2018-04-15T14:44:48.834Z,35.50
2018-04-15T14:47:17.116Z,36.30
2018-04-15T14:49:45.372Z,35.20
2018-04-15T14:52:12.887Z,35.10
2018-04-15T14:54:40.380Z,34.80
2018-04-15T14:57:07.893Z,35.00
2018-04-15T14:59:35.372Z,35.40
2018-04-15T15:02:02.888Z,35.00
2018-04-15T15:04:31.189Z,35.20
2018-04-15T15:06:58.720Z,35.20
2018-04-15T15:09:26.959Z,36.10
2018-04-15T15:11:54.742Z,36.10
2018-04-15T15:14:22.259Z,35.40
2018-04-15T15:16:49.762Z,35.70
2018-04-15T15:19:17.317Z,36.20
2018-04-15T15:21:44.784Z,36.80
2018-04-15T15:24:13.022Z,37.00
2018-04-15T15:26:40.539Z,36.80
2018-04-15T15:29:08.006Z,36.50
2018-04-15T15:31:35.514Z,37.00
2018-04-15T15:34:03.016Z,37.70
2018-04-15T15:36:30.829Z,37.90
2018-04-15T15:38:58.320Z,37.90
2018-04-15T15:41:26.613Z,39.10
2018-04-15T15:43:54.085Z,39.00
2018-04-15T15:46:21.661Z,38.50
2018-04-15T15:48:49.165Z,37.50
2018-04-15T15:51:17.504Z,38.60
2018-04-15T15:53:44.997Z,38.60
2018-04-15T15:56:13.259Z,38.00
2018-04-15T15:58:40.769Z,38.00
2018-04-15T16:01:08.279Z,37.90
2018-04-15T16:03:35.807Z,38.10
2018-04-15T16:06:03.284Z,38.50
2018-04-15T16:08:31.387Z,38.40
2018-04-15T16:10:59.631Z,38.60
2018-04-15T16:13:27.887Z,38.40
2018-04-15T16:15:55.352Z,37.70
2018-04-15T16:18:22.863Z,38.30
2018-04-15T16:20:51.116Z,38.60
2018-04-15T16:23:18.625Z,38.60
2018-04-15T16:25:46.098Z,39.40
2018-04-15T16:28:13.612Z,39.40
2018-04-15T16:30:41.838Z,40.20
2018-04-15T16:33:10.052Z,40.00
2018-04-15T16:35:38.328Z,40.20
2018-04-15T16:38:06.604Z,39.80
2018-04-15T16:40:34.093Z,39.80
2018-04-15T16:43:01.590Z,40.20
2018-04-15T16:45:29.068Z,41.30
2018-04-15T16:47:57.591Z,40.90
2018-04-15T16:50:25.050Z,40.50
2018-04-15T16:52:52.574Z,40.60
2018-04-15T16:55:20.818Z,41.20
2018-04-15T16:57:48.302Z,41.20
2018-04-15T17:00:15.821Z,41.30
2018-04-15T17:02:43.304Z,41.70
2018-04-15T17:05:10.811Z,41.50
2018-04-15T17:07:39.078Z,42.00
2018-04-15T17:10:06.567Z,41.90
2018-04-15T17:12:34.130Z,42.60
2018-04-15T17:15:02.828Z,42.30
2018-04-15T17:17:30.306Z,42.80
2018-04-15T17:19:58.498Z,43.50
2018-04-15T17:22:26.752Z,44.10
2018-04-15T17:24:54.259Z,44.00
2018-04-15T17:27:21.736Z,44.60
2018-04-15T17:29:49.252Z,45.30
2018-04-15T17:32:16.716Z,45.40
2018-04-15T17:34:44.232Z,46.20
2018-04-15T17:37:12.593Z,46.60
2018-04-15T17:39:40.164Z,46.90
2018-04-15T17:42:07.642Z,47.30
2018-04-15T17:44:35.134Z,47.60
2018-04-15T17:47:02.632Z,47.90
2018-04-15T17:49:30.143Z,48.40
2018-04-15T17:51:57.632Z,48.90
2018-04-15T17:54:25.160Z,49.40
2018-04-15T17:56:52.651Z,49.50
2018-04-15T17:59:20.151Z,50.10
2018-04-15T18:01:47.629Z,50.80
2018-04-15T18:04:15.928Z,51.80
2018-04-15T18:06:44.431Z,51.70
2018-04-15T18:09:11.997Z,52.70
2018-04-15T18:11:39.437Z,53.10
2018-04-15T18:14:06.937Z,53.80
2018-04-15T18:16:34.411Z,56.50
2018-04-15T18:19:02.694Z,68.80
2018-04-15T18:21:30.196Z,68.70
2018-04-15T18:23:57.705Z,77.90
2018-04-15T18:26:25.938Z,88.70
2018-04-15T18:28:53.433Z,88.70
2018-04-15T18:31:21.713Z,91.00
2018-04-15T18:33:50.001Z,91.60
2018-04-15T18:36:17.585Z,91.50
2018-04-15T18:38:45.091Z,91.90
2018-04-15T18:41:12.596Z,92.60
2018-04-15T18:43:40.149Z,93.30
2018-04-15T18:46:07.621Z,93.80
2018-04-15T18:48:35.127Z,94.00
2018-04-15T18:51:02.594Z,93.60
2018-04-15T18:53:30.883Z,94.60
2018-04-15T18:55:58.396Z,94.50
2018-04-15T18:58:25.914Z,94.70
2018-04-15T19:00:53.386Z,95.40
2018-04-15T19:03:21.632Z,96.00
2018-04-15T19:05:49.879Z,97.30
2018-04-15T19:08:17.537Z,97.30
2018-04-15T19:10:45.757Z,98.10
2018-04-15T19:13:13.254Z,98.60
2018-04-15T19:15:40.736Z,99.10
2018-04-15T19:18:08.227Z,99.50
2018-04-15T19:20:35.712Z,99.50
2018-04-15T19:23:03.206Z,99.70
2018-04-15T19:25:30.672Z,99.90
2018-04-15T19:28:00.402Z,99.90
2018-04-15T19:30:28.637Z,99.90
2018-04-15T19:32:56.140Z,99.90
2018-04-15T19:35:23.630Z,99.90
2018-04-15T19:37:51.121Z,99.90
2018-04-15T19:40:18.599Z,99.90
2018-04-15T19:42:46.884Z,99.90
2018-04-15T19:45:15.128Z,99.90
2018-04-15T19:47:42.867Z,99.90
2018-04-15T19:50:10.339Z,99.90
2018-04-15T19:52:38.621Z,99.90
2018-04-15T19:55:06.083Z,99.90
2018-04-15T19:57:33.576Z,99.90
2018-04-15T20:00:01.085Z,99.90
2018-04-15T20:02:28.704Z,99.90
2018-04-15T20:04:56.282Z,99.90
2018-04-15T20:07:23.768Z,99.90
2018-04-15T20:09:51.286Z,99.90
2018-04-15T20:12:18.782Z,99.90
2018-04-15T20:14:46.370Z,99.90
2018-04-15T20:17:13.776Z,99.90
2018-04-15T20:19:43.255Z,99.90
2018-04-15T20:22:10.734Z,99.90
2018-04-15T20:24:38.242Z,99.90
2018-04-15T20:27:06.553Z,99.90
2018-04-15T20:29:34.027Z,99.90
2018-04-15T20:32:01.504Z,99.90
2018-04-15T20:34:29.135Z,99.90
2018-04-15T20:36:56.563Z,99.90
2018-04-15T20:39:25.091Z,99.90
2018-04-15T20:41:52.571Z,99.90
2018-04-15T20:44:20.082Z,99.90
2018-04-15T20:46:47.586Z,99.90
2018-04-15T20:49:15.080Z,99.90
2018-04-15T20:51:43.324Z,99.90
2018-04-15T20:54:10.810Z,99.90
2018-04-15T20:56:39.068Z,99.90
2018-04-15T20:59:06.569Z,99.90
2018-04-15T21:01:34.046Z,99.90
2018-04-15T21:04:01.562Z,99.90
2018-04-15T21:06:29.790Z,99.90
2018-04-15T21:08:57.989Z,99.90
2018-04-15T21:11:26.265Z,99.90
2018-04-15T21:13:53.872Z,99.90
2018-04-15T21:16:21.362Z,99.90
2018-04-15T21:18:48.844Z,99.90
2018-04-15T21:21:16.367Z,99.90
2018-04-15T21:23:43.834Z,99.90
2018-04-15T21:26:11.338Z,99.90
2018-04-15T21:28:39.579Z,99.90
2018-04-15T21:31:07.099Z,99.90
2018-04-15T21:33:34.575Z,99.90
2018-04-15T21:36:02.112Z,99.90
2018-04-15T21:38:29.578Z,99.90
2018-04-15T21:40:57.074Z,99.90
2018-04-15T21:43:24.543Z,99.90
2018-04-15T21:45:52.036Z,99.90
2018-04-15T21:48:19.496Z,99.90
2018-04-15T21:50:47.022Z,99.90
2018-04-15T21:53:15.264Z,99.90
2018-04-15T21:55:42.792Z,99.90
2018-04-15T21:58:10.253Z,99.90
2018-04-15T22:00:37.748Z,99.90
2018-04-15T22:03:05.251Z,99.90
2018-04-15T22:05:32.714Z,99.90
2018-04-15T22:08:00.220Z,99.90
2018-04-15T22:10:27.691Z,99.90
2018-04-15T22:13:05.120Z,99.90
2018-04-15T22:15:32.578Z,99.90
2018-04-15T22:18:00.084Z,99.90
2018-04-15T22:20:27.555Z,99.90
2018-04-15T22:22:55.051Z,99.90
2018-04-15T22:25:22.548Z,99.90
2018-04-15T22:27:50.051Z,99.90
2018-04-15T22:30:18.285Z,99.90
2018-04-15T22:32:45.779Z,99.90
2018-04-15T22:35:13.999Z,99.90
2018-04-15T22:37:41.527Z,99.90
2018-04-15T22:40:09.004Z,99.90
2018-04-15T22:42:36.500Z,99.90
2018-04-15T22:45:03.982Z,99.90
2018-04-15T22:47:32.764Z,99.90
2018-04-15T22:50:05.972Z,99.90
2018-04-15T22:52:34.240Z,99.90
2018-04-15T22:55:02.464Z,99.90
2018-04-15T22:57:29.973Z,99.90
2018-04-15T22:59:58.206Z,99.90
2018-04-15T23:02:25.996Z,99.90
2018-04-15T23:04:53.472Z,99.90
2018-04-15T23:07:21.731Z,99.90
2018-04-15T23:09:49.211Z,99.90
2018-04-15T23:12:17.674Z,99.90
2018-04-15T23:14:45.168Z,99.90
2018-04-15T23:17:12.644Z,99.90
2018-04-15T23:19:40.146Z,99.90
2018-04-15T23:22:07.631Z,99.90
2018-04-15T23:24:35.897Z,99.90
2018-04-15T23:27:04.130Z,99.90
2018-04-15T23:29:31.631Z,99.90
2018-04-15T23:31:59.866Z,99.90
2018-04-15T23:34:27.350Z,99.90
2018-04-15T23:36:54.826Z,99.90
2018-04-15T23:39:23.074Z,99.90
2018-04-15T23:41:50.533Z,99.90
2018-04-15T23:44:18.030Z,99.90
2018-04-15T23:46:45.485Z,99.90
2018-04-15T23:49:13.003Z,99.90
2018-04-15T23:51:40.468Z,99.90
2018-04-15T23:54:07.931Z,99.90
2018-04-15T23:56:35.416Z,99.90
2018-04-15T23:59:02.889Z,99.90
